createdAt,value
2019-01-09T00:00:50.712Z,100973.86
2019-01-09T00:03:20.099Z,100976.84
2019-01-09T00:05:48.725Z,100965.55
2019-01-09T00:08:17.349Z,100986.30
2019-01-09T00:10:45.853Z,100982.02
2019-01-09T00:13:14.336Z,100989.55
2019-01-09T00:15:43.051Z,100973.66
2019-01-09T00:18:11.308Z,100993.00
2019-01-09T00:20:39.873Z,100993.42
2019-01-09T00:23:08.836Z,100990.31
2019-01-09T00:25:37.415Z,101001.52
2019-01-09T00:28:05.992Z,100999.08
2019-01-09T00:30:34.665Z,101007.36
2019-01-09T00:33:03.283Z,101012.50
2019-01-09T00:35:37.340Z,101009.26
2019-01-09T00:38:03.377Z,101006.87
2019-01-09T00:40:32.015Z,101002.52
2019-01-09T00:43:00.462Z,101017.13
2019-01-09T00:45:29.164Z,101019.83
2019-01-09T00:47:58.015Z,101016.81
2019-01-09T00:50:26.671Z,101014.89
2019-01-09T00:52:55.294Z,101027.89
2019-01-09T00:55:24.134Z,101033.56
2019-01-09T00:57:52.793Z,101038.20
2019-01-09T01:00:21.711Z,101039.69
2019-01-09T01:03:36.676Z,101040.23
2019-01-09T01:07:07.305Z,101032.39
2019-01-09T01:10:51.168Z,101047.19
2019-01-09T01:14:19.604Z,101052.16
2019-01-09T01:17:42.749Z,101075.34
2019-01-09T01:20:32.072Z,101065.97
2019-01-09T01:23:46.946Z,101072.05
2019-01-09T01:26:47.125Z,101083.75
2019-01-09T01:30:30.424Z,101089.28
2019-01-09T01:34:06.421Z,101116.42
2019-01-09T01:37:37.857Z,101095.99
2019-01-09T01:41:18.897Z,101107.34
2019-01-09T01:44:09.439Z,101102.08
2019-01-09T01:47:56.553Z,101104.77
2019-01-09T01:51:43.692Z,101113.11
2019-01-09T01:54:58.461Z,101114.15
2019-01-09T01:58:46.716Z,101131.58
2019-01-09T02:02:11.741Z,101132.39
2019-01-09T02:05:43.154Z,101137.30
2019-01-09T02:08:50.431Z,101142.11
2019-01-09T02:11:46.283Z,101138.52
2019-01-09T02:15:05.326Z,101140.75
2019-01-09T02:18:24.454Z,101145.84
2019-01-09T02:21:38.047Z,101156.20
2019-01-09T02:25:25.322Z,101157.50
2019-01-09T02:28:20.442Z,101163.99
2019-01-09T02:31:12.401Z,101162.78
2019-01-09T02:33:41.233Z,101166.46
2019-01-09T02:36:13.569Z,101182.30
2019-01-09T02:38:41.120Z,101188.41
2019-01-09T02:41:10.924Z,101179.76
2019-01-09T02:43:40.301Z,101160.44
2019-01-09T02:46:08.930Z,101179.37
2019-01-09T02:48:37.480Z,101165.64
2019-01-09T02:51:06.816Z,101188.33
2019-01-09T02:53:36.927Z,101190.49
2019-01-09T02:56:05.544Z,101190.30
2019-01-09T02:58:34.362Z,101192.73
2019-01-09T03:01:03.133Z,101211.75
2019-01-09T03:03:32.054Z,101203.34
2019-01-09T03:06:00.410Z,101198.52
2019-01-09T03:08:28.903Z,101197.83
2019-01-09T03:10:57.261Z,101203.80
2019-01-09T03:13:25.824Z,101202.80
2019-01-09T03:15:54.485Z,101205.53
2019-01-09T03:18:23.087Z,101198.59
2019-01-09T03:20:51.862Z,101204.91
2019-01-09T03:23:20.764Z,101210.51
2019-01-09T03:25:49.275Z,101203.52
2019-01-09T03:28:18.158Z,101212.31
2019-01-09T03:30:46.621Z,101199.31
2019-01-09T03:33:15.265Z,101208.00
2019-01-09T03:35:44.474Z,101215.80
2019-01-09T03:38:13.119Z,101204.78
2019-01-09T03:40:41.829Z,101210.91
2019-01-09T03:43:10.304Z,101205.44
2019-01-09T03:45:39.003Z,101212.43
2019-01-09T03:48:07.680Z,101204.63
2019-01-09T03:50:36.404Z,101209.45
2019-01-09T03:53:05.009Z,101200.75
2019-01-09T03:55:33.696Z,101202.36
2019-01-09T03:58:02.305Z,101210.02
2019-01-09T04:00:30.721Z,101209.63
2019-01-09T04:02:59.543Z,101208.28
2019-01-09T04:05:28.066Z,101216.45
2019-01-09T04:07:56.483Z,101224.16
2019-01-09T04:10:25.246Z,101222.70
2019-01-09T04:12:54.063Z,101230.66
2019-01-09T04:15:23.168Z,101232.27
2019-01-09T04:17:51.690Z,101232.34
2019-01-09T04:20:20.412Z,101216.77
2019-01-09T04:22:48.858Z,101228.41
2019-01-09T04:25:19.365Z,101226.63
2019-01-09T04:27:47.952Z,101239.90
2019-01-09T04:30:16.523Z,101246.91
2019-01-09T04:32:44.965Z,101246.23
2019-01-09T04:35:14.387Z,101245.15
2019-01-09T04:37:42.848Z,101248.22
2019-01-09T04:40:11.546Z,101258.22
2019-01-09T04:42:40.361Z,101239.32
2019-01-09T04:45:09.188Z,101237.43
2019-01-09T04:47:37.971Z,101235.20
2019-01-09T04:50:06.769Z,101259.56
2019-01-09T04:52:35.667Z,101246.75
2019-01-09T04:55:04.478Z,101257.20
2019-01-09T04:57:33.313Z,101265.61
2019-01-09T05:00:02.200Z,101263.36
2019-01-09T05:02:30.787Z,101269.80
2019-01-09T05:04:59.454Z,101267.44
2019-01-09T05:07:28.559Z,101264.75
2019-01-09T05:09:57.086Z,101256.41
2019-01-09T05:12:25.595Z,101257.80
2019-01-09T05:14:54.036Z,101270.14
2019-01-09T05:17:22.493Z,101261.00
2019-01-09T05:19:51.399Z,101268.86
2019-01-09T05:22:20.262Z,101266.20
2019-01-09T05:24:48.973Z,101270.84
2019-01-09T05:27:17.424Z,101270.58
2019-01-09T05:29:45.973Z,101289.84
2019-01-09T05:32:14.818Z,101266.36
2019-01-09T05:34:43.536Z,101286.00
2019-01-09T05:37:12.358Z,101282.75
2019-01-09T05:39:40.838Z,101291.42
2019-01-09T05:42:09.316Z,101283.91
2019-01-09T05:44:40.359Z,101282.42
2019-01-09T05:47:09.058Z,101308.02
2019-01-09T05:49:37.769Z,101289.91
2019-01-09T05:52:06.429Z,101295.57
2019-01-09T05:54:34.877Z,101295.47
2019-01-09T05:57:03.476Z,101305.02
2019-01-09T05:59:32.041Z,101298.20
2019-01-09T06:02:00.999Z,101310.41
2019-01-09T06:04:31.709Z,101307.30
2019-01-09T06:07:00.733Z,101309.94
2019-01-09T06:09:29.194Z,101317.82
2019-01-09T06:11:57.797Z,101311.68
2019-01-09T06:14:26.636Z,101326.25
2019-01-09T06:16:55.351Z,101322.47
2019-01-09T06:19:23.836Z,101333.59
2019-01-09T06:21:52.196Z,101329.72
2019-01-09T06:24:20.894Z,101335.95
2019-01-09T06:26:49.323Z,101339.88
2019-01-09T06:29:17.761Z,101337.45
2019-01-09T06:31:46.387Z,101334.82
2019-01-09T06:34:15.500Z,101346.14
2019-01-09T06:36:45.127Z,101353.22
2019-01-09T06:39:13.782Z,101351.78
2019-01-09T06:41:42.324Z,101362.09
2019-01-09T06:44:10.889Z,101352.37
2019-01-09T06:46:39.787Z,101365.20
2019-01-09T06:49:08.173Z,101360.86
2019-01-09T06:51:36.585Z,101361.93
2019-01-09T06:54:05.083Z,101383.20
2019-01-09T06:56:33.711Z,101377.57
2019-01-09T06:59:02.092Z,101381.53
2019-01-09T07:01:30.594Z,101387.52
2019-01-09T07:03:59.154Z,101388.66
2019-01-09T07:06:28.017Z,101384.12
2019-01-09T07:08:56.574Z,101388.44
2019-01-09T07:11:25.525Z,101396.77
2019-01-09T07:13:55.010Z,101386.52
2019-01-09T07:16:23.650Z,101392.73
2019-01-09T07:18:52.299Z,101391.91
2019-01-09T07:21:21.095Z,101411.88
2019-01-09T07:23:49.540Z,101400.81
2019-01-09T07:26:18.123Z,101392.30
2019-01-09T07:28:46.614Z,101410.66
2019-01-09T07:31:15.535Z,101403.00
2019-01-09T07:33:44.533Z,101410.63
2019-01-09T07:36:13.866Z,101412.81
2019-01-09T07:38:42.612Z,101419.80
2019-01-09T07:41:11.289Z,101424.65
2019-01-09T07:43:39.796Z,101426.59
2019-01-09T07:46:08.445Z,101417.98
2019-01-09T07:48:36.961Z,101435.19
2019-01-09T07:51:05.562Z,101431.70
2019-01-09T07:53:34.355Z,101444.87
2019-01-09T07:56:03.028Z,101443.28
2019-01-09T07:58:31.848Z,101440.06
2019-01-09T08:01:00.565Z,101443.30
2019-01-09T08:03:29.058Z,101456.54
2019-01-09T08:05:57.506Z,101459.02
2019-01-09T08:08:25.907Z,101456.63
2019-01-09T08:10:54.339Z,101457.17
2019-01-09T08:13:23.171Z,101473.55
2019-01-09T08:15:51.829Z,101475.67
2019-01-09T08:18:20.297Z,101473.69
2019-01-09T08:20:49.315Z,101485.61
2019-01-09T08:23:18.193Z,101488.23
2019-01-09T08:25:46.888Z,101487.61
2019-01-09T08:28:15.339Z,101497.25
2019-01-09T08:30:43.954Z,101500.47
2019-01-09T08:33:12.518Z,101502.55
2019-01-09T08:35:41.185Z,101501.98
2019-01-09T08:38:09.936Z,101511.37
2019-01-09T08:40:38.672Z,101508.11
2019-01-09T08:43:07.767Z,101513.48
2019-01-09T08:45:36.330Z,101510.34
2019-01-09T08:48:07.110Z,101514.70
2019-01-09T08:50:35.831Z,101512.02
2019-01-09T08:53:05.031Z,101531.74
2019-01-09T08:55:33.813Z,101515.86
2019-01-09T08:58:02.305Z,101535.45
2019-01-09T09:00:30.948Z,101534.71
2019-01-09T09:02:59.439Z,101533.81
2019-01-09T09:05:28.134Z,101539.22
2019-01-09T09:08:01.691Z,101545.09
2019-01-09T09:10:30.455Z,101545.72
2019-01-09T09:12:58.935Z,101554.84
2019-01-09T09:15:27.439Z,101551.54
2019-01-09T09:17:56.131Z,101544.28
2019-01-09T09:20:24.889Z,101543.78
2019-01-09T09:22:53.423Z,101553.22
2019-01-09T09:25:21.957Z,101551.41
2019-01-09T09:27:50.544Z,101564.60
2019-01-09T09:30:19.443Z,101569.16
2019-01-09T09:32:48.039Z,101569.37
2019-01-09T09:35:16.716Z,101575.03
2019-01-09T09:37:45.728Z,101577.41
2019-01-09T09:40:18.247Z,101582.58
2019-01-09T09:42:46.855Z,101579.64
2019-01-09T09:45:15.880Z,101579.37
2019-01-09T09:47:44.740Z,101587.75
2019-01-09T09:50:14.768Z,101583.39
2019-01-09T09:52:43.317Z,101590.38
2019-01-09T09:55:12.953Z,101594.72
2019-01-09T09:57:41.814Z,101606.09
2019-01-09T10:00:16.321Z,101603.02
2019-01-09T10:02:45.159Z,101608.95
2019-01-09T10:05:13.778Z,101610.72
2019-01-09T10:07:42.452Z,101605.95
2019-01-09T10:10:11.524Z,101607.44
2019-01-09T10:12:40.069Z,101609.06
2019-01-09T10:15:10.224Z,101609.82
2019-01-09T10:17:38.859Z,101610.11
2019-01-09T10:20:12.198Z,101609.67
2019-01-09T10:22:43.429Z,101604.15
2019-01-09T10:25:12.100Z,101611.80
2019-01-09T10:27:40.795Z,101610.41
2019-01-09T10:30:14.700Z,101612.08
2019-01-09T10:32:43.433Z,101615.53
2019-01-09T10:35:12.055Z,101619.78
2019-01-09T10:37:40.780Z,101622.87
2019-01-09T10:40:12.715Z,101613.59
2019-01-09T10:42:41.599Z,101613.03
2019-01-09T10:45:12.657Z,101618.45
2019-01-09T10:47:41.633Z,101623.73
2019-01-09T10:50:11.481Z,101615.73
2019-01-09T10:52:39.870Z,101629.16
2019-01-09T10:55:09.561Z,101616.91
2019-01-09T10:57:45.384Z,101626.70
2019-01-09T11:00:21.145Z,101623.29
2019-01-09T11:02:50.086Z,101627.34
2019-01-09T11:05:18.994Z,101627.48
2019-01-09T11:07:47.493Z,101631.85
2019-01-09T11:10:17.549Z,101629.74
2019-01-09T11:12:46.313Z,101625.63
2019-01-09T11:15:15.344Z,101633.64
2019-01-09T11:17:44.956Z,101628.95
2019-01-09T11:20:17.222Z,101639.75
2019-01-09T11:22:46.775Z,101630.27
2019-01-09T11:25:27.163Z,101646.38
2019-01-09T11:27:56.279Z,101635.22
2019-01-09T11:30:24.638Z,101629.52
2019-01-09T11:32:53.509Z,101637.40
2019-01-09T11:35:24.388Z,101631.46
2019-01-09T11:37:53.385Z,101641.35
2019-01-09T11:40:22.121Z,101647.27
2019-01-09T11:42:51.107Z,101645.11
2019-01-09T11:45:19.906Z,101651.39
2019-01-09T11:47:49.044Z,101654.75
2019-01-09T11:50:18.233Z,101660.13
2019-01-09T11:52:47.203Z,101654.45
2019-01-09T11:55:34.401Z,101656.78
2019-01-09T11:58:04.252Z,101662.26
2019-01-09T12:00:33.170Z,101658.50
2019-01-09T12:03:02.638Z,101663.37
2019-01-09T12:05:31.217Z,101658.60
2019-01-09T12:08:00.540Z,101660.70
2019-01-09T12:10:30.264Z,101664.09
2019-01-09T12:12:59.234Z,101663.61
2019-01-09T12:15:27.721Z,101667.05
2019-01-09T12:17:56.060Z,101680.72
2019-01-09T12:20:25.959Z,101676.45
2019-01-09T12:22:54.857Z,101676.29
2019-01-09T12:25:23.264Z,101677.44
2019-01-09T12:27:52.820Z,101684.79
2019-01-09T12:30:27.062Z,101684.19
2019-01-09T12:32:56.184Z,101686.34
2019-01-09T12:35:25.592Z,101686.97
2019-01-09T12:37:54.188Z,101681.57
2019-01-09T12:40:23.988Z,101692.82
2019-01-09T12:42:52.662Z,101692.11
2019-01-09T12:45:21.625Z,101689.41
2019-01-09T12:47:50.848Z,101691.02
2019-01-09T12:50:23.580Z,101689.11
2019-01-09T12:52:53.332Z,101691.77
2019-01-09T12:55:21.905Z,101692.11
2019-01-09T12:57:50.939Z,101690.98
2019-01-09T13:00:22.984Z,101696.84
2019-01-09T13:02:53.429Z,101708.25
2019-01-09T13:05:22.563Z,101707.19
2019-01-09T13:07:53.040Z,101717.63
2019-01-09T13:10:21.751Z,101719.33
2019-01-09T13:12:52.644Z,101717.16
2019-01-09T13:15:20.971Z,101713.34
2019-01-09T13:17:49.753Z,101729.30
2019-01-09T13:20:18.455Z,101720.02
2019-01-09T13:22:47.178Z,101729.59
2019-01-09T13:25:15.809Z,101729.55
2019-01-09T13:27:44.626Z,101738.47
2019-01-09T13:30:16.737Z,101745.78
2019-01-09T13:32:45.383Z,101744.52
2019-01-09T13:35:13.871Z,101750.20
2019-01-09T13:37:43.439Z,101752.08
2019-01-09T13:40:15.506Z,101750.44
2019-01-09T13:42:45.889Z,101750.97
2019-01-09T13:45:34.247Z,101762.34
2019-01-09T13:48:03.459Z,101765.87
2019-01-09T13:50:32.457Z,101767.22
2019-01-09T13:53:01.033Z,101769.61
2019-01-09T13:55:29.771Z,101776.36
2019-01-09T13:57:58.140Z,101786.11
2019-01-09T14:00:26.790Z,101778.02
2019-01-09T14:02:56.869Z,101781.16
2019-01-09T14:05:25.361Z,101787.61
2019-01-09T14:07:54.305Z,101786.78
2019-01-09T14:10:25.993Z,101780.66
2019-01-09T14:12:54.681Z,101801.19
2019-01-09T14:15:23.213Z,101795.27
2019-01-09T14:17:51.887Z,101785.80
2019-01-09T14:20:20.762Z,101805.53
2019-01-09T14:22:49.283Z,101803.59
2019-01-09T14:25:17.863Z,101807.92
2019-01-09T14:27:46.283Z,101812.55
2019-01-09T14:30:19.164Z,101816.03
2019-01-09T14:32:47.725Z,101818.73
2019-01-09T14:35:16.341Z,101817.38
2019-01-09T14:37:46.663Z,101826.58
2019-01-09T14:40:15.417Z,101829.87
2019-01-09T14:42:44.343Z,101833.92
2019-01-09T14:45:20.737Z,101832.34
2019-01-09T14:47:49.582Z,101834.20
2019-01-09T14:50:21.389Z,101835.27
2019-01-09T14:52:50.015Z,101836.91
2019-01-09T14:55:18.830Z,101839.83
2019-01-09T14:57:47.728Z,101837.72
2019-01-09T15:00:22.810Z,101850.70
2019-01-09T15:02:52.524Z,101849.34
2019-01-09T15:05:21.484Z,101851.73
2019-01-09T15:07:50.433Z,101857.19
2019-01-09T15:10:28.290Z,101858.00
2019-01-09T15:12:57.874Z,101855.07
2019-01-09T15:15:28.447Z,101850.73
2019-01-09T15:17:57.667Z,101862.07
2019-01-09T15:20:26.572Z,101874.77
2019-01-09T15:22:55.401Z,101869.91
2019-01-09T15:25:24.166Z,101872.08
2019-01-09T15:27:52.839Z,101884.70
2019-01-09T15:30:24.827Z,101878.78
2019-01-09T15:32:53.680Z,101874.53
2019-01-09T15:35:22.650Z,101878.00
2019-01-09T15:37:51.518Z,101887.73
2019-01-09T15:40:25.376Z,101884.80
2019-01-09T15:42:53.944Z,101886.39
2019-01-09T15:45:22.574Z,101890.43
2019-01-09T15:47:51.460Z,101895.09
2019-01-09T15:50:21.441Z,101890.48
2019-01-09T15:52:50.224Z,101898.58
2019-01-09T15:55:21.008Z,101888.60
2019-01-09T15:57:49.853Z,101898.09
2019-01-09T16:00:43.211Z,101897.27
2019-01-09T16:03:12.200Z,101898.45
2019-01-09T16:05:40.749Z,101905.69
2019-01-09T16:08:10.232Z,101910.80
2019-01-09T16:10:39.582Z,101911.41
2019-01-09T16:13:08.138Z,101921.33
2019-01-09T16:15:36.771Z,101916.47
2019-01-09T16:18:05.733Z,101919.98
2019-01-09T16:20:34.353Z,101922.72
2019-01-09T16:23:03.362Z,101928.08
2019-01-09T16:25:31.798Z,101928.36
2019-01-09T16:28:00.426Z,101928.11
2019-01-09T16:31:12.574Z,101938.58
2019-01-09T16:33:41.185Z,101930.23
2019-01-09T16:36:10.742Z,101945.06
2019-01-09T16:38:39.751Z,101943.41
2019-01-09T16:41:08.335Z,101945.56
2019-01-09T16:43:37.061Z,101957.20
2019-01-09T16:46:06.771Z,101956.35
2019-01-09T16:48:36.408Z,101954.15
2019-01-09T16:51:05.543Z,101962.24
2019-01-09T16:53:34.214Z,101959.30
2019-01-09T16:56:03.404Z,101960.39
2019-01-09T16:58:32.356Z,101963.91
2019-01-09T17:01:00.968Z,101979.77
2019-01-09T17:03:29.999Z,101973.56
2019-01-09T17:05:58.838Z,101978.91
2019-01-09T17:08:39.891Z,101984.84
2019-01-09T17:11:09.240Z,101981.37
2019-01-09T17:13:38.667Z,101989.48
2019-01-09T17:16:07.674Z,101989.73
2019-01-09T17:18:37.450Z,101995.38
2019-01-09T17:21:06.061Z,101997.80
2019-01-09T17:23:34.622Z,102004.58
2019-01-09T17:26:05.627Z,102001.62
2019-01-09T17:28:39.908Z,102012.91
2019-01-09T17:31:08.539Z,102013.77
2019-01-09T17:33:38.302Z,102018.34
2019-01-09T17:36:09.859Z,102020.79
2019-01-09T17:38:38.812Z,102022.92
2019-01-09T17:41:07.503Z,102023.73
2019-01-09T17:43:36.232Z,102027.50
2019-01-09T17:46:08.533Z,102029.41
2019-01-09T17:48:37.088Z,102038.56
2019-01-09T17:51:05.808Z,102039.39
2019-01-09T17:53:34.411Z,102043.96
2019-01-09T17:56:04.142Z,102044.49
2019-01-09T17:58:32.843Z,102043.43
2019-01-09T18:01:01.701Z,102053.69
2019-01-09T18:03:30.571Z,102061.77
2019-01-09T18:05:59.267Z,102057.98
2019-01-09T18:08:27.807Z,102067.70
2019-01-09T18:10:56.452Z,102064.75
2019-01-09T18:13:26.522Z,102067.16
2019-01-09T18:15:55.228Z,102074.22
2019-01-09T18:18:23.893Z,102079.30
2019-01-09T18:20:52.431Z,102080.42
2019-01-09T18:23:21.459Z,102082.30
2019-01-09T18:25:50.010Z,102078.25
2019-01-09T18:28:19.214Z,102088.20
2019-01-09T18:31:07.973Z,102095.78
2019-01-09T18:34:29.755Z,102092.27
2019-01-09T18:37:51.884Z,102086.88
2019-01-09T18:41:29.658Z,102093.63
2019-01-09T18:44:26.997Z,102099.80
2019-01-09T18:47:51.039Z,102096.06
2019-01-09T18:51:36.004Z,102110.38
2019-01-09T18:54:04.530Z,102105.50
2019-01-09T18:56:33.086Z,102110.36
2019-01-09T18:59:01.655Z,102122.21
2019-01-09T19:01:30.372Z,102122.21
2019-01-09T19:03:58.978Z,102131.92
2019-01-09T19:06:34.967Z,102144.06
2019-01-09T19:08:58.340Z,102137.05
2019-01-09T19:11:26.945Z,102137.05
2019-01-09T19:13:55.794Z,102136.52
2019-01-09T19:16:24.233Z,102145.69
2019-01-09T19:18:54.254Z,102145.13
2019-01-09T19:21:22.832Z,102149.72
2019-01-09T19:23:51.957Z,102151.34
2019-01-09T19:26:21.670Z,102149.73
2019-01-09T19:28:50.707Z,102159.17
2019-01-09T19:31:19.284Z,102167.52
2019-01-09T19:33:47.793Z,102159.17
2019-01-09T19:36:16.568Z,102162.97
2019-01-09T19:38:45.279Z,102163.20
2019-01-09T19:41:17.326Z,102170.78
2019-01-09T19:43:45.075Z,102165.38
2019-01-09T19:46:14.490Z,102175.61
2019-01-09T19:48:43.325Z,102176.16
2019-01-09T19:51:17.334Z,102184.79
2019-01-09T19:53:43.176Z,102198.28
2019-01-09T19:56:11.951Z,102190.47
2019-01-09T19:58:40.546Z,102193.43
2019-01-09T20:01:09.156Z,102195.02
2019-01-09T20:03:39.038Z,102203.13
2019-01-09T20:06:07.873Z,102195.58
2019-01-09T20:08:36.468Z,102201.24
2019-01-09T20:11:05.328Z,102204.47
2019-01-09T20:13:33.974Z,102207.43
2019-01-09T20:16:03.646Z,102208.53
2019-01-09T20:18:33.450Z,102203.92
2019-01-09T20:21:02.809Z,102209.08
2019-01-09T20:23:31.687Z,102212.83
2019-01-09T20:26:01.515Z,102218.20
2019-01-09T20:28:30.443Z,102211.75
2019-01-09T20:30:59.031Z,102209.86
2019-01-09T20:33:27.716Z,102216.61
2019-01-09T20:35:56.270Z,102219.30
2019-01-09T20:38:28.115Z,102217.69
2019-01-09T20:40:56.751Z,102222.80
2019-01-09T20:43:25.224Z,102222.80
2019-01-09T20:45:53.777Z,102228.72
2019-01-09T20:48:22.356Z,102238.70
2019-01-09T20:50:51.022Z,102233.33
2019-01-09T20:53:21.829Z,102244.36
2019-01-09T20:55:50.544Z,102238.16
2019-01-09T20:58:19.136Z,102245.16
2019-01-09T21:00:47.973Z,102245.99
2019-01-09T21:03:16.562Z,102248.13
2019-01-09T21:05:48.819Z,102251.38
2019-01-09T21:08:17.699Z,102258.13
2019-01-09T21:10:46.732Z,102258.13
2019-01-09T21:13:15.322Z,102259.45
2019-01-09T21:15:43.986Z,102257.02
2019-01-09T21:18:12.515Z,102262.67
2019-01-09T21:20:41.128Z,102259.17
2019-01-09T21:23:10.122Z,102269.44
2019-01-09T21:25:38.921Z,102258.12
2019-01-09T21:28:07.979Z,102269.14
2019-01-09T21:30:37.191Z,102266.20
2019-01-09T21:33:06.400Z,102263.75
2019-01-09T21:35:35.062Z,102265.93
2019-01-09T21:38:03.878Z,102267.00
2019-01-09T21:40:32.537Z,102267.52
2019-01-09T21:43:01.034Z,102271.59
2019-01-09T21:45:29.464Z,102279.67
2019-01-09T21:47:58.349Z,102282.34
2019-01-09T21:50:27.360Z,102279.64
2019-01-09T21:52:55.965Z,102289.37
2019-01-09T21:55:24.735Z,102293.16
2019-01-09T21:57:55.690Z,102299.34
2019-01-09T22:00:26.001Z,102305.52
2019-01-09T22:02:54.547Z,102305.53
2019-01-09T22:05:25.117Z,102307.98
2019-01-09T22:07:54.063Z,102319.52
2019-01-09T22:10:30.340Z,102317.64
2019-01-09T22:12:58.916Z,102321.16
2019-01-09T22:15:27.725Z,102325.75
2019-01-09T22:17:56.470Z,102330.31
2019-01-09T22:20:25.148Z,102332.23
2019-01-09T22:22:53.635Z,102327.11
2019-01-09T22:25:22.258Z,102334.93
2019-01-09T22:27:51.037Z,102327.94
2019-01-09T22:30:25.753Z,102330.88
2019-01-09T22:32:54.689Z,102325.52
2019-01-09T22:35:23.705Z,102332.21
2019-01-09T22:37:52.272Z,102334.93
2019-01-09T22:40:22.514Z,102335.20
2019-01-09T22:42:51.186Z,102333.85
2019-01-09T22:45:20.363Z,102346.52
2019-01-09T22:47:50.660Z,102348.38
2019-01-09T22:50:23.305Z,102346.77
2019-01-09T22:52:52.008Z,102340.84
2019-01-09T22:55:20.876Z,102341.39
2019-01-09T22:57:49.513Z,102341.38
2019-01-09T23:00:46.316Z,102345.95
2019-01-09T23:03:16.015Z,102346.14
2019-01-09T23:05:44.690Z,102342.87
2019-01-09T23:08:13.246Z,102342.59
2019-01-09T23:10:42.919Z,102355.80
2019-01-09T23:13:12.334Z,102364.51
2019-01-09T23:15:41.058Z,102361.95
2019-01-09T23:18:10.331Z,102360.05
2019-01-09T23:20:38.938Z,102352.47
2019-01-09T23:23:08.753Z,102350.55
2019-01-09T23:25:38.216Z,102361.15
2019-01-09T23:28:06.999Z,102360.27
2019-01-09T23:30:35.450Z,102352.13
2019-01-09T23:33:04.344Z,102362.84
2019-01-09T23:35:32.842Z,102355.53
2019-01-09T23:38:01.954Z,102355.53
2019-01-09T23:40:30.555Z,102350.16
2019-01-09T23:43:00.764Z,102357.16
2019-01-09T23:45:29.429Z,102348.69
2019-01-09T23:47:57.931Z,102352.34
2019-01-09T23:50:26.367Z,102344.55
2019-01-09T23:52:54.920Z,102353.09
2019-01-09T23:55:23.455Z,102350.67
2019-01-09T23:57:52.279Z,102352.72
